createdAt,value
2022-11-10T00:02:34.214Z,9.90
2022-11-10T00:05:21.194Z,9.80
2022-11-10T00:08:12.131Z,9.80
2022-11-10T00:11:01.353Z,9.80
2022-11-10T00:14:09.342Z,9.80
2022-11-10T00:17:04.297Z,9.80
2022-11-10T00:19:51.395Z,9.70
2022-11-10T00:22:39.820Z,9.70
2022-11-10T00:25:28.935Z,9.70
2022-11-10T00:28:16.128Z,9.70
2022-11-10T00:31:07.058Z,9.70
2022-11-10T00:33:53.821Z,9.60
2022-11-10T00:36:42.097Z,9.70
2022-11-10T00:39:29.662Z,9.60
2022-11-10T00:42:19.051Z,9.60
2022-11-10T00:45:07.491Z,9.60
2022-11-10T00:47:54.492Z,9.60
2022-11-10T00:50:41.616Z,9.60
2022-11-10T00:53:28.781Z,9.60
2022-11-10T00:56:16.085Z,9.60
2022-11-10T00:59:05.124Z,9.60
2022-11-10T01:01:52.095Z,9.60
2022-11-10T01:04:39.397Z,9.60
2022-11-10T01:07:26.550Z,9.70
2022-11-10T01:10:14.243Z,9.70
2022-11-10T01:13:01.794Z,9.70
2022-11-10T01:15:50.340Z,9.70
2022-11-10T01:18:37.812Z,9.60
2022-11-10T01:21:25.705Z,9.60
2022-11-10T01:24:12.825Z,9.60
2022-11-10T01:26:59.803Z,9.60
2022-11-10T01:29:46.822Z,9.60
2022-11-10T01:32:35.376Z,9.60
2022-11-10T01:35:22.439Z,9.50
2022-11-10T01:38:09.611Z,9.50
2022-11-10T01:40:57.667Z,9.50
2022-11-10T01:43:45.149Z,9.50
2022-11-10T01:46:32.496Z,9.40
2022-11-10T01:49:25.602Z,9.40
2022-11-10T01:52:14.855Z,9.40
2022-11-10T01:55:02.094Z,9.40
2022-11-10T01:57:49.677Z,9.50
2022-11-10T02:00:37.024Z,9.50
2022-11-10T02:03:30.094Z,9.50
2022-11-10T02:06:21.323Z,9.60
2022-11-10T02:09:08.856Z,9.50
2022-11-10T02:11:56.722Z,9.50
2022-11-10T02:14:44.381Z,9.50
2022-11-10T02:17:31.564Z,9.50
2022-11-10T02:20:20.871Z,9.50
2022-11-10T02:23:36.916Z,9.50
2022-11-10T02:26:27.509Z,9.50
2022-11-10T02:29:15.504Z,9.50
2022-11-10T02:32:02.908Z,9.50
2022-11-10T02:34:50.197Z,9.50
2022-11-10T02:37:37.355Z,9.50
2022-11-10T02:40:25.710Z,9.50
2022-11-10T02:43:16.299Z,9.50
2022-11-10T02:46:03.698Z,9.50
2022-11-10T02:48:51.102Z,9.50
2022-11-10T02:51:38.079Z,9.40
2022-11-10T02:54:25.430Z,9.40
2022-11-10T02:57:14.084Z,9.40
2022-11-10T03:00:00.967Z,9.40
2022-11-10T03:02:47.844Z,9.40
2022-11-10T03:05:34.769Z,9.40
2022-11-10T03:08:21.737Z,9.40
2022-11-10T03:11:09.196Z,9.40
2022-11-10T03:14:02.270Z,9.40
2022-11-10T03:16:49.887Z,9.40
2022-11-10T03:19:37.122Z,9.40
2022-11-10T03:22:24.494Z,9.40
2022-11-10T03:25:12.051Z,9.30
2022-11-10T03:27:59.003Z,9.40
2022-11-10T03:30:47.466Z,9.30
2022-11-10T03:33:34.334Z,9.30
2022-11-10T03:36:21.370Z,9.30
2022-11-10T03:39:08.195Z,9.30
2022-11-10T03:41:55.273Z,9.30
2022-11-10T03:44:42.371Z,9.30
2022-11-10T03:47:30.862Z,9.30
2022-11-10T03:50:18.501Z,9.30
2022-11-10T03:53:05.829Z,9.30
2022-11-10T03:55:52.733Z,9.30
2022-11-10T03:58:39.679Z,9.30
2022-11-10T04:01:26.735Z,9.30
2022-11-10T04:04:29.371Z,9.30
2022-11-10T04:07:33.964Z,9.20
2022-11-10T04:10:21.234Z,9.20
2022-11-10T04:13:25.888Z,9.20
2022-11-10T04:16:13.104Z,9.20
2022-11-10T04:19:01.060Z,9.20
2022-11-10T04:21:49.707Z,9.20
2022-11-10T04:24:36.815Z,9.20
2022-11-10T04:27:24.258Z,9.20
2022-11-10T04:30:12.107Z,9.20
2022-11-10T04:32:59.055Z,9.20
2022-11-10T04:35:46.128Z,9.20
2022-11-10T04:38:34.999Z,9.20
2022-11-10T04:41:22.166Z,9.20
2022-11-10T04:44:09.393Z,9.20
2022-11-10T04:46:56.850Z,9.20
2022-11-10T04:49:44.161Z,9.20
2022-11-10T04:52:31.704Z,9.10
2022-11-10T04:55:20.192Z,9.10
2022-11-10T04:58:07.693Z,9.10
2022-11-10T05:00:54.832Z,9.10
2022-11-10T05:03:41.996Z,9.10
2022-11-10T05:06:29.255Z,9.10
2022-11-10T05:09:16.368Z,9.10
2022-11-10T05:12:04.771Z,9.10
2022-11-10T05:14:51.655Z,9.10
2022-11-10T05:17:39.109Z,9.10
2022-11-10T05:20:27.269Z,9.10
2022-11-10T05:23:31.730Z,9.10
2022-11-10T05:26:19.746Z,9.10
2022-11-10T05:29:08.467Z,9.10
2022-11-10T05:31:55.743Z,9.10
2022-11-10T05:34:42.903Z,9.10
2022-11-10T05:37:29.827Z,9.10
2022-11-10T05:40:17.517Z,9.10
2022-11-10T05:43:04.349Z,9.10
2022-11-10T05:45:53.020Z,9.10
2022-11-10T05:48:39.916Z,9.10
2022-11-10T05:51:26.987Z,9.10
2022-11-10T05:54:13.925Z,9.10
2022-11-10T05:57:00.862Z,9.10
2022-11-10T05:59:48.059Z,9.00
2022-11-10T06:02:36.890Z,9.10
2022-11-10T06:05:26.950Z,9.00
2022-11-10T06:08:18.231Z,9.00
2022-11-10T06:11:05.611Z,9.00
2022-11-10T06:13:52.756Z,9.00
2022-11-10T06:16:39.746Z,9.00
2022-11-10T06:19:28.334Z,9.00
2022-11-10T06:22:15.628Z,9.00
2022-11-10T06:25:02.570Z,9.00
2022-11-10T06:27:49.323Z,8.90
2022-11-10T06:30:38.591Z,8.90
2022-11-10T06:33:26.191Z,8.90
2022-11-10T06:36:14.215Z,8.90
2022-11-10T06:39:01.432Z,8.90
2022-11-10T06:41:48.672Z,8.90
2022-11-10T06:44:36.118Z,8.90
2022-11-10T06:47:23.398Z,8.90
2022-11-10T06:50:11.012Z,8.90
2022-11-10T06:53:01.152Z,8.90
2022-11-10T06:55:48.522Z,8.90
2022-11-10T06:58:35.551Z,8.90
2022-11-10T07:01:26.754Z,9.00
2022-11-10T07:04:20.409Z,9.00
2022-11-10T07:07:08.356Z,9.00
2022-11-10T07:09:56.826Z,9.00
2022-11-10T07:12:44.085Z,9.00
2022-11-10T07:15:31.937Z,9.00
2022-11-10T07:18:19.168Z,9.10
2022-11-10T07:21:07.292Z,9.10
2022-11-10T07:23:54.323Z,9.10
2022-11-10T07:26:42.882Z,9.10
2022-11-10T07:29:29.698Z,9.20
2022-11-10T07:32:16.635Z,9.20
2022-11-10T07:35:03.509Z,9.20
2022-11-10T07:37:50.398Z,9.30
2022-11-10T07:40:38.051Z,9.30
2022-11-10T07:43:26.745Z,9.30
2022-11-10T07:46:13.732Z,9.40
2022-11-10T07:49:00.762Z,9.40
2022-11-10T07:51:47.820Z,9.50
2022-11-10T07:54:34.758Z,9.50
2022-11-10T07:57:21.963Z,9.60
2022-11-10T08:00:13.277Z,9.70
2022-11-10T08:03:03.834Z,9.70
2022-11-10T08:05:51.084Z,9.80
2022-11-10T08:08:38.056Z,9.80
2022-11-10T08:11:25.310Z,9.90
2022-11-10T08:14:12.535Z,10.00
2022-11-10T08:17:01.498Z,10.10
2022-11-10T08:19:48.324Z,10.10
2022-11-10T08:22:35.764Z,10.30
2022-11-10T08:25:22.916Z,10.40
2022-11-10T08:28:11.444Z,10.50
2022-11-10T08:31:04.294Z,10.60
2022-11-10T08:33:53.974Z,10.70
2022-11-10T08:36:40.815Z,10.90
2022-11-10T08:39:38.579Z,11.00
2022-11-10T08:42:25.982Z,11.10
2022-11-10T08:45:13.702Z,11.20
2022-11-10T08:48:02.118Z,11.30
2022-11-10T08:50:51.548Z,11.40
2022-11-10T08:53:38.382Z,11.50
2022-11-10T08:56:25.199Z,11.50
2022-11-10T08:59:12.160Z,11.60
2022-11-10T09:01:59.548Z,11.60
2022-11-10T09:04:46.738Z,11.60
2022-11-10T09:07:43.083Z,11.60
2022-11-10T09:10:29.894Z,11.50
2022-11-10T09:13:18.235Z,11.60
2022-11-10T09:16:06.362Z,11.60
2022-11-10T09:18:53.509Z,11.60
2022-11-10T09:21:41.085Z,11.60
2022-11-10T09:24:31.555Z,11.60
2022-11-10T09:27:19.388Z,11.70
2022-11-10T09:30:09.663Z,11.70
2022-11-10T09:33:01.112Z,11.80
2022-11-10T09:35:48.379Z,11.80
2022-11-10T09:38:36.113Z,11.90
2022-11-10T09:41:24.620Z,11.90
2022-11-10T09:44:17.515Z,12.00
2022-11-10T09:47:12.387Z,12.10
2022-11-10T09:50:06.186Z,12.20
2022-11-10T09:52:55.189Z,12.30
2022-11-10T09:55:45.570Z,12.40
2022-11-10T09:58:39.732Z,12.50
2022-11-10T10:01:39.991Z,12.60
2022-11-10T10:04:51.961Z,12.70
2022-11-10T10:07:47.861Z,12.90
2022-11-10T10:10:40.888Z,13.00
2022-11-10T10:13:46.829Z,13.10
2022-11-10T10:16:41.275Z,13.20
2022-11-10T10:19:38.774Z,13.30
2022-11-10T10:22:49.188Z,13.30
2022-11-10T10:25:38.895Z,13.30
2022-11-10T10:28:33.208Z,13.40
2022-11-10T10:31:26.060Z,13.40
2022-11-10T10:34:16.384Z,13.40
2022-11-10T10:37:05.165Z,13.50
2022-11-10T10:39:55.475Z,13.60
2022-11-10T10:42:42.613Z,13.70
2022-11-10T10:45:31.174Z,13.80
2022-11-10T10:48:30.771Z,13.90
2022-11-10T10:51:31.636Z,14.00
2022-11-10T10:54:27.639Z,14.10
2022-11-10T10:57:23.709Z,14.10
2022-11-10T11:00:22.241Z,14.20
2022-11-10T11:03:20.432Z,14.30
2022-11-10T11:06:20.556Z,14.40
2022-11-10T11:09:10.288Z,14.60
2022-11-10T11:12:02.920Z,14.70
2022-11-10T11:14:50.124Z,14.80
2022-11-10T11:17:37.543Z,14.90
2022-11-10T11:20:33.282Z,14.90
2022-11-10T11:23:41.214Z,14.90
2022-11-10T11:26:40.348Z,14.90
2022-11-10T11:30:15.446Z,14.90
2022-11-10T11:33:22.137Z,15.00
2022-11-10T11:36:22.367Z,14.90
2022-11-10T11:39:27.710Z,15.00
2022-11-10T11:42:26.133Z,15.00
2022-11-10T11:45:20.240Z,15.00
2022-11-10T11:48:37.635Z,15.00
2022-11-10T11:51:32.292Z,15.00
2022-11-10T11:54:42.906Z,15.00
2022-11-10T11:57:41.259Z,15.00
2022-11-10T12:00:35.991Z,15.00
2022-11-10T12:03:47.284Z,15.00
2022-11-10T12:06:45.600Z,14.90
2022-11-10T12:09:43.690Z,15.00
2022-11-10T12:12:56.197Z,15.00
2022-11-10T12:15:50.741Z,15.10
2022-11-10T12:18:43.602Z,15.20
2022-11-10T12:21:42.704Z,15.20
2022-11-10T12:25:05.632Z,15.20
2022-11-10T12:27:57.172Z,15.30
2022-11-10T12:30:45.477Z,15.30
2022-11-10T12:33:39.039Z,15.30
2022-11-10T12:36:30.597Z,15.30
2022-11-10T12:39:22.380Z,15.30
2022-11-10T12:42:16.673Z,15.50
2022-11-10T12:45:07.564Z,15.60
2022-11-10T12:47:55.522Z,15.70
2022-11-10T12:50:50.165Z,15.70
2022-11-10T12:53:41.150Z,15.80
2022-11-10T12:56:33.860Z,15.80
2022-11-10T12:59:41.304Z,15.80
2022-11-10T13:02:33.325Z,15.80
2022-11-10T13:05:28.429Z,15.80
2022-11-10T13:08:25.289Z,15.60
2022-11-10T13:11:25.478Z,15.60
2022-11-10T13:14:25.123Z,15.50
2022-11-10T13:17:52.634Z,15.50
2022-11-10T13:20:51.617Z,15.50
2022-11-10T13:24:16.553Z,15.40
2022-11-10T13:27:04.814Z,15.40
2022-11-10T13:29:57.170Z,15.50
2022-11-10T13:32:45.865Z,15.50
2022-11-10T13:35:54.963Z,15.40
2022-11-10T13:38:44.272Z,15.40
2022-11-10T13:41:34.563Z,15.50
2022-11-10T13:44:25.094Z,15.40
2022-11-10T13:47:35.898Z,15.40
2022-11-10T13:50:37.766Z,15.40
2022-11-10T13:53:36.590Z,15.40
2022-11-10T13:56:38.278Z,15.40
2022-11-10T13:59:27.840Z,15.40
2022-11-10T14:02:47.190Z,15.30
2022-11-10T14:06:06.040Z,15.30
2022-11-10T14:08:57.236Z,15.30
2022-11-10T14:11:50.125Z,15.20
2022-11-10T14:14:51.353Z,15.20
2022-11-10T14:17:44.023Z,15.10
2022-11-10T14:20:36.100Z,15.00
2022-11-10T14:23:30.449Z,15.00
2022-11-10T14:26:24.329Z,15.00
2022-11-10T14:29:32.263Z,15.00
2022-11-10T14:32:22.574Z,15.00
2022-11-10T14:35:20.622Z,14.90
2022-11-10T14:38:20.174Z,14.90
2022-11-10T14:41:18.330Z,14.90
2022-11-10T14:44:07.583Z,14.90
2022-11-10T14:46:54.903Z,14.80
2022-11-10T14:49:42.004Z,14.80
2022-11-10T14:52:29.088Z,14.80
2022-11-10T14:55:20.561Z,14.70
2022-11-10T14:58:14.934Z,14.70
2022-11-10T15:01:03.587Z,14.60
2022-11-10T15:03:51.194Z,14.50
2022-11-10T15:06:43.066Z,14.40
2022-11-10T15:09:33.947Z,14.40
2022-11-10T15:12:24.440Z,14.40
2022-11-10T15:15:23.280Z,14.20
2022-11-10T15:18:29.349Z,14.20
2022-11-10T15:21:18.580Z,14.10
2022-11-10T15:24:07.572Z,14.10
2022-11-10T15:26:54.524Z,14.00
2022-11-10T15:29:41.394Z,13.90
2022-11-10T15:32:35.602Z,13.90
2022-11-10T15:35:29.981Z,13.80
2022-11-10T15:38:30.707Z,13.70
2022-11-10T15:41:27.298Z,13.60
2022-11-10T15:44:16.737Z,13.60
2022-11-10T15:47:03.827Z,13.50
2022-11-10T15:49:52.363Z,13.50
2022-11-10T15:52:39.636Z,13.40
2022-11-10T15:55:27.051Z,13.30
2022-11-10T15:58:16.571Z,13.30
2022-11-10T16:01:04.768Z,13.20
2022-11-10T16:03:51.883Z,13.20
2022-11-10T16:06:41.154Z,13.10
2022-11-10T16:09:28.204Z,13.10
2022-11-10T16:12:19.376Z,13.10
2022-11-10T16:15:12.725Z,13.00
2022-11-10T16:17:59.918Z,13.00
2022-11-10T16:20:46.919Z,12.90
2022-11-10T16:23:35.391Z,12.90
2022-11-10T16:26:24.576Z,12.80
2022-11-10T16:29:13.802Z,12.80
2022-11-10T16:32:01.224Z,12.70
2022-11-10T16:34:48.133Z,12.70
2022-11-10T16:37:35.333Z,12.70
2022-11-10T16:40:25.091Z,12.60
2022-11-10T16:43:16.592Z,12.60
2022-11-10T16:46:06.744Z,12.50
2022-11-10T16:48:55.556Z,12.50
2022-11-10T16:51:48.604Z,12.40
2022-11-10T16:54:35.899Z,12.30
2022-11-10T16:57:24.519Z,12.30
2022-11-10T17:00:13.043Z,12.20
2022-11-10T17:03:05.347Z,12.10
2022-11-10T17:05:52.588Z,12.10
2022-11-10T17:08:39.595Z,12.10
2022-11-10T17:11:27.195Z,12.10
2022-11-10T17:14:16.457Z,12.10
2022-11-10T17:17:03.816Z,12.10
2022-11-10T17:19:52.531Z,12.10
2022-11-10T17:22:39.901Z,12.10
2022-11-10T17:25:30.103Z,12.20
2022-11-10T17:28:19.789Z,12.10
2022-11-10T17:31:08.288Z,12.10
2022-11-10T17:33:55.667Z,12.10
2022-11-10T17:36:42.929Z,12.10
2022-11-10T17:39:30.010Z,12.10
2022-11-10T17:42:17.111Z,12.10
2022-11-10T17:45:04.200Z,12.00
2022-11-10T17:47:53.603Z,12.00
2022-11-10T17:50:42.901Z,12.00
2022-11-10T17:53:29.992Z,12.00
2022-11-10T17:56:17.925Z,11.90
2022-11-10T17:59:05.383Z,11.90
2022-11-10T18:01:52.767Z,11.80
2022-11-10T18:04:41.180Z,11.80
2022-11-10T18:07:28.335Z,11.70
2022-11-10T18:10:16.295Z,11.70
2022-11-10T18:13:03.583Z,11.60
2022-11-10T18:15:54.201Z,11.60
2022-11-10T18:18:42.006Z,11.60
2022-11-10T18:21:30.621Z,11.60
2022-11-10T18:24:18.122Z,11.60
2022-11-10T18:27:05.052Z,11.50
2022-11-10T18:29:52.016Z,11.50
2022-11-10T18:32:38.846Z,11.50
2022-11-10T18:35:25.661Z,11.50
2022-11-10T18:38:14.363Z,11.50
2022-11-10T18:41:25.914Z,11.50
2022-11-10T18:44:13.607Z,11.50
2022-11-10T18:47:00.903Z,11.50
2022-11-10T18:49:48.284Z,11.50
2022-11-10T18:52:35.135Z,11.50
2022-11-10T18:55:23.491Z,11.40
2022-11-10T18:58:11.083Z,11.40
2022-11-10T19:01:04.266Z,11.50
2022-11-10T19:03:51.631Z,11.40
2022-11-10T19:06:39.069Z,11.30
2022-11-10T19:09:26.403Z,11.30
2022-11-10T19:12:14.894Z,11.40
2022-11-10T19:15:01.741Z,11.30
2022-11-10T19:17:48.707Z,11.30
2022-11-10T19:20:36.712Z,11.30
2022-11-10T19:23:26.067Z,11.30
2022-11-10T19:26:20.872Z,11.30
2022-11-10T19:29:11.218Z,11.30
2022-11-10T19:31:58.164Z,11.30
2022-11-10T19:34:45.124Z,11.20
2022-11-10T19:37:35.084Z,11.20
2022-11-10T19:40:22.753Z,11.20
2022-11-10T19:43:10.196Z,11.20
2022-11-10T19:46:02.438Z,11.10
2022-11-10T19:48:49.561Z,11.10
2022-11-10T19:51:36.962Z,11.10
2022-11-10T19:54:24.663Z,11.10
2022-11-10T19:57:11.733Z,11.10
2022-11-10T19:59:58.904Z,11.10
2022-11-10T20:02:47.295Z,11.10
2022-11-10T20:05:34.219Z,11.10
2022-11-10T20:08:21.303Z,11.10
2022-11-10T20:11:11.058Z,11.10
2022-11-10T20:14:00.342Z,11.20
2022-11-10T20:16:47.400Z,11.10
2022-11-10T20:19:40.778Z,11.10
2022-11-10T20:22:28.527Z,11.10
2022-11-10T20:25:15.695Z,11.10
2022-11-10T20:28:06.117Z,11.10
2022-11-10T20:30:57.391Z,11.00
2022-11-10T20:33:45.582Z,11.00
2022-11-10T20:36:34.764Z,11.00
2022-11-10T20:39:21.957Z,11.00
2022-11-10T20:42:10.294Z,11.00
2022-11-10T20:44:57.411Z,11.00
2022-11-10T20:47:44.265Z,11.00
2022-11-10T20:50:31.174Z,10.90
2022-11-10T20:53:19.563Z,10.90
2022-11-10T20:56:07.925Z,10.90
2022-11-10T20:58:55.268Z,10.90
2022-11-10T21:01:42.288Z,10.90
2022-11-10T21:04:29.561Z,10.80
2022-11-10T21:07:16.865Z,10.90
2022-11-10T21:10:06.696Z,10.80
2022-11-10T21:12:54.602Z,10.80
2022-11-10T21:15:41.916Z,10.80
2022-11-10T21:18:31.371Z,10.70
2022-11-10T21:21:23.101Z,10.70
2022-11-10T21:24:11.222Z,10.70
2022-11-10T21:26:59.581Z,10.70
2022-11-10T21:29:46.950Z,10.60
2022-11-10T21:32:33.944Z,10.70
2022-11-10T21:35:21.812Z,10.70
2022-11-10T21:38:11.831Z,10.70
2022-11-10T21:40:59.098Z,10.60
2022-11-10T21:43:47.788Z,10.60
2022-11-10T21:46:34.829Z,10.60
2022-11-10T21:49:22.432Z,10.60
2022-11-10T21:52:09.567Z,10.60
2022-11-10T21:54:56.416Z,10.60
2022-11-10T21:57:43.393Z,10.60
2022-11-10T22:00:32.057Z,10.60
2022-11-10T22:03:19.664Z,10.60
2022-11-10T22:06:08.683Z,10.60
2022-11-10T22:08:55.769Z,10.60
2022-11-10T22:12:00.052Z,10.60
2022-11-10T22:15:04.429Z,10.60
2022-11-10T22:18:10.406Z,10.60
2022-11-10T22:20:57.513Z,10.60
2022-11-10T22:24:01.927Z,10.60
2022-11-10T22:26:48.917Z,10.60
2022-11-10T22:29:36.362Z,10.50
2022-11-10T22:32:23.518Z,10.60
2022-11-10T22:35:33.028Z,10.50
2022-11-10T22:38:20.135Z,10.50
2022-11-10T22:41:25.249Z,10.50
2022-11-10T22:44:14.455Z,10.50
2022-11-10T22:47:01.369Z,10.50
2022-11-10T22:49:48.285Z,10.50
2022-11-10T22:52:36.805Z,10.40
2022-11-10T22:55:23.865Z,10.40
2022-11-10T22:58:10.851Z,10.40
2022-11-10T23:01:05.956Z,10.40
2022-11-10T23:03:53.222Z,10.50
2022-11-10T23:06:40.442Z,10.50
2022-11-10T23:09:28.972Z,10.50
2022-11-10T23:12:16.068Z,10.50
2022-11-10T23:15:03.076Z,10.60
2022-11-10T23:17:50.314Z,10.60
2022-11-10T23:20:37.487Z,10.70
2022-11-10T23:23:24.692Z,10.70
2022-11-10T23:26:15.624Z,10.70
2022-11-10T23:29:02.693Z,10.70
2022-11-10T23:31:49.891Z,10.70
2022-11-10T23:34:36.778Z,10.60
2022-11-10T23:37:23.844Z,10.60
2022-11-10T23:40:12.480Z,10.50
2022-11-10T23:43:01.085Z,10.40
2022-11-10T23:46:05.979Z,10.40
2022-11-10T23:48:54.045Z,10.40
2022-11-10T23:51:41.210Z,10.40
2022-11-10T23:54:28.134Z,10.40
2022-11-10T23:57:15.054Z,10.30
